Time;durP1;ratioP1;P1;durP2;ratioP2;P2;SDS_P1;SDS_P2;PMS_P1;PMS_P2;Temp;Humidity;BMP_temperature;BMP_pressure;BME280_temperature;BME280_humidity;BME280_pressure;Samples;Min_cycle;Max_cycle;Signal;HPM_P1;HPM_P2
2023/09/02 00:02:21;;;;;;;7.15;5.53;;;;;;;;;;5036002;28;20045;-74
2023/09/02 00:04:47;;;;;;;9.48;6.13;;;;;;;;;;5034776;28;20110;-74
2023/09/02 00:07:13;;;;;;;8.35;6.07;;;;;;;;;;5052021;28;20049;-74
2023/09/02 00:09:39;;;;;;;8.57;6.20;;;;;;;;;;5058105;28;20045;-75
2023/09/02 00:12:06;;;;;;;7.28;6.38;;;;;;;;;;5035301;28;20424;-74
2023/09/02 00:14:33;;;;;;;7.80;5.90;;;;;;;;;;5068275;28;20511;-74
2023/09/02 00:16:59;;;;;;;9.80;6.60;;;;;;;;;;5082548;28;20056;-74
2023/09/02 00:19:25;;;;;;;7.82;6.60;;;;;;;;;;5069253;28;20044;-74
2023/09/02 00:21:52;;;;;;;8.23;6.53;;;;;;;;;;5048765;28;20049;-73
2023/09/02 00:24:18;;;;;;;8.43;6.68;;;;;;;;;;5071210;28;20048;-74
2023/09/02 00:26:44;;;;;;;8.98;7.03;;;;;;;;;;5065874;28;20055;-73
2023/09/02 00:29:10;;;;;;;8.63;6.60;;;;;;;;;;5043607;28;20051;-74
2023/09/02 00:31:36;;;;;;;8.65;6.90;;;;;;;;;;5063243;28;20112;-75
2023/09/02 00:34:02;;;;;;;9.32;7.00;;;;;;;;;;5064532;28;20086;-75
2023/09/02 00:36:30;;;;;;;8.02;6.43;;;;;;;;;;5044466;28;20044;-75
2023/09/02 00:39:00;;;;;;;9.38;7.05;;;;;;;;;;5062565;28;20048;-75
2023/09/02 00:41:29;;;;;;;7.47;6.28;;;;;;;;;;5039050;28;20068;-74
2023/09/02 00:43:56;;;;;;;10.63;6.93;;;;;;;;;;5038133;28;20220;-75
2023/09/02 00:46:23;;;;;;;11.55;7.00;;;;;;;;;;5046217;28;20048;-74
2023/09/02 00:48:49;;;;;;;7.85;6.57;;;;;;;;;;5046251;28;20387;-74
2023/09/02 00:51:15;;;;;;;8.25;7.05;;;;;;;;;;5069733;28;20055;-74
2023/09/02 00:53:41;;;;;;;9.00;6.57;;;;;;;;;;5058365;28;20074;-75
2023/09/02 00:56:08;;;;;;;8.02;6.75;;;;;;;;;;5042185;28;20044;-75
2023/09/02 00:58:34;;;;;;;9.15;7.30;;;;;;;;;;5058119;28;20056;-75
2023/09/02 01:01:01;;;;;;;10.30;6.82;;;;;;;;;;5055894;28;20036;-76
2023/09/02 01:03:28;;;;;;;9.93;7.20;;;;;;;;;;5042491;28;20060;-75
2023/09/02 01:05:54;;;;;;;8.32;6.68;;;;;;;;;;5057810;28;20049;-76
2023/09/02 01:08:20;;;;;;;10.38;7.18;;;;;;;;;;5045907;28;20048;-75
2023/09/02 01:10:47;;;;;;;10.73;7.80;;;;;;;;;;5039966;28;20151;-76
2023/09/02 01:13:13;;;;;;;9.52;7.07;;;;;;;;;;5046399;28;20047;-75
2023/09/02 01:15:39;;;;;;;10.85;7.40;;;;;;;;;;5056497;28;20080;-75
2023/09/02 01:18:05;;;;;;;9.32;7.38;;;;;;;;;;5045773;28;20404;-75
2023/09/02 01:20:47;;;;;;;10.70;7.07;;;;;;;;;;5046526;28;20036;-75
2023/09/02 01:23:25;;;;;;;9.02;7.63;;;;;;;;;;5046743;28;20476;-75
2023/09/02 01:26:05;;;;;;;8.02;6.75;;;;;;;;;;5046325;28;20488;-75
2023/09/02 01:28:32;;;;;;;9.52;7.72;;;;;;;;;;5054342;28;20230;-75
2023/09/02 01:31:00;;;;;;;10.48;7.40;;;;;;;;;;5058904;28;20033;-76
2023/09/02 01:33:28;;;;;;;8.95;7.45;;;;;;;;;;5076734;28;20539;-76
2023/09/02 01:35:57;;;;;;;10.23;8.05;;;;;;;;;;5061228;28;20044;-76
2023/09/02 01:38:26;;;;;;;10.15;7.80;;;;;;;;;;5043183;28;20052;-76
2023/09/02 01:40:54;;;;;;;8.30;7.50;;;;;;;;;;5063602;28;20076;-76
2023/09/02 01:43:21;;;;;;;9.75;7.93;;;;;;;;;;5069977;28;20098;-76
2023/09/02 01:45:47;;;;;;;9.65;7.88;;;;;;;;;;5088749;28;20036;-76
2023/09/02 01:48:13;;;;;;;9.90;8.05;;;;;;;;;;5048443;28;20047;-76
2023/09/02 01:50:40;;;;;;;10.70;8.25;;;;;;;;;;5075039;28;20086;-76
2023/09/02 01:53:10;;;;;;;10.13;8.15;;;;;;;;;;5064155;28;20056;-76
2023/09/02 01:55:36;;;;;;;10.05;7.70;;;;;;;;;;5053589;28;20055;-76
2023/09/02 01:58:02;;;;;;;10.20;7.60;;;;;;;;;;5052827;28;20044;-76
2023/09/02 02:00:28;;;;;;;11.30;7.70;;;;;;;;;;5044093;28;20040;-75
2023/09/02 02:02:55;;;;;;;10.80;8.20;;;;;;;;;;5072874;28;20094;-75
2023/09/02 02:05:33;;;;;;;11.88;8.23;;;;;;;;;;5040129;28;20057;-75
2023/09/02 02:08:01;;;;;;;11.15;7.95;;;;;;;;;;5082241;28;20032;-76
2023/09/02 02:10:27;;;;;;;12.30;8.52;;;;;;;;;;5057031;28;20044;-75
2023/09/02 02:12:54;;;;;;;11.15;8.40;;;;;;;;;;5067760;28;20168;-75
2023/09/02 02:15:20;;;;;;;11.43;8.38;;;;;;;;;;5071654;28;20052;-76
2023/09/02 02:17:47;;;;;;;10.55;7.93;;;;;;;;;;5068486;28;20082;-76
2023/09/02 02:20:13;;;;;;;10.77;8.13;;;;;;;;;;5053935;28;20049;-75
2023/09/02 02:22:39;;;;;;;10.18;8.20;;;;;;;;;;5061947;28;20051;-75
2023/09/02 02:25:05;;;;;;;9.27;7.78;;;;;;;;;;5073542;28;20059;-76
2023/09/02 02:27:31;;;;;;;9.38;8.32;;;;;;;;;;5066683;28;20369;-75
2023/09/02 02:29:57;;;;;;;10.60;8.10;;;;;;;;;;5071516;28;20052;-76
2023/09/02 02:32:23;;;;;;;9.93;8.20;;;;;;;;;;5065048;28;20112;-76
2023/09/02 02:34:50;;;;;;;12.25;8.32;;;;;;;;;;5064075;28;20071;-76
2023/09/02 02:37:16;;;;;;;11.57;8.25;;;;;;;;;;5055753;28;20040;-75
2023/09/02 02:39:42;;;;;;;10.48;7.95;;;;;;;;;;5061367;28;20036;-76
2023/09/02 02:42:08;;;;;;;12.65;8.55;;;;;;;;;;5062033;28;20045;-76
2023/09/02 02:44:35;;;;;;;9.93;7.93;;;;;;;;;;5061755;28;20089;-76
2023/09/02 02:47:01;;;;;;;11.18;9.57;;;;;;;;;;5074969;28;20044;-76
2023/09/02 02:49:27;;;;;;;9.40;7.82;;;;;;;;;;5057091;28;20052;-76
2023/09/02 02:51:56;;;;;;;11.15;8.18;;;;;;;;;;5051844;28;20046;-75
2023/09/02 02:54:22;;;;;;;9.27;8.00;;;;;;;;;;5066731;28;20080;-75
2023/09/02 02:56:48;;;;;;;10.98;8.85;;;;;;;;;;5036250;28;20398;-76
2023/09/02 02:59:14;;;;;;;11.35;8.55;;;;;;;;;;5036612;28;20114;-76
2023/09/02 03:01:40;;;;;;;10.57;8.63;;;;;;;;;;5051614;28;20448;-75
2023/09/02 03:04:08;;;;;;;10.48;8.10;;;;;;;;;;5067039;28;20823;-76
2023/09/02 03:06:34;;;;;;;9.18;8.23;;;;;;;;;;5059882;28;20106;-76
2023/09/02 03:09:00;;;;;;;10.90;8.75;;;;;;;;;;5050877;28;20037;-75
2023/09/02 03:11:26;;;;;;;13.40;9.27;;;;;;;;;;5057619;28;20498;-75
2023/09/02 03:13:52;;;;;;;11.50;8.98;;;;;;;;;;5049971;28;20052;-75
2023/09/02 03:16:18;;;;;;;14.75;9.98;;;;;;;;;;5042334;28;20072;-76
2023/09/02 03:18:44;;;;;;;13.35;10.13;;;;;;;;;;5064069;28;20048;-76
2023/09/02 03:21:10;;;;;;;13.18;8.88;;;;;;;;;;5078531;28;20477;-76
2023/09/02 03:23:36;;;;;;;13.10;9.07;;;;;;;;;;5069976;28;20369;-75
2023/09/02 03:26:12;;;;;;;12.50;8.90;;;;;;;;;;5053015;28;20080;-75
2023/09/02 03:28:38;;;;;;;11.25;8.90;;;;;;;;;;5064912;28;20072;-75
2023/09/02 03:31:08;;;;;;;12.45;9.13;;;;;;;;;;5044915;28;20126;-75
2023/09/02 03:33:34;;;;;;;13.93;8.88;;;;;;;;;;5058641;28;20091;-76
2023/09/02 03:36:00;;;;;;;11.40;8.95;;;;;;;;;;5056793;28;20048;-76
2023/09/02 03:38:27;;;;;;;13.07;9.18;;;;;;;;;;5044485;28;20040;-76
2023/09/02 03:40:53;;;;;;;12.85;8.73;;;;;;;;;;5066579;28;20486;-76
2023/09/02 03:43:19;;;;;;;10.90;9.05;;;;;;;;;;5079052;28;20097;-75
2023/09/02 03:45:48;;;;;;;12.48;9.13;;;;;;;;;;5075149;28;20045;-75
2023/09/02 03:48:18;;;;;;;13.68;9.18;;;;;;;;;;5061847;28;20119;-76
2023/09/02 03:51:03;;;;;;;12.65;9.10;;;;;;;;;;5063647;28;20487;-76
2023/09/02 03:53:30;;;;;;;12.80;9.25;;;;;;;;;;5053641;28;20087;-75
2023/09/02 03:55:56;;;;;;;12.60;8.73;;;;;;;;;;5050587;28;20471;-76
2023/09/02 03:58:22;;;;;;;11.07;9.23;;;;;;;;;;5054775;28;20500;-75
2023/09/02 04:00:48;;;;;;;12.50;9.63;;;;;;;;;;5049662;28;20083;-75
2023/09/02 04:03:15;;;;;;;11.32;8.80;;;;;;;;;;5074269;28;20047;-75
2023/09/02 04:05:42;;;;;;;11.45;9.40;;;;;;;;;;5056571;28;20044;-75
2023/09/02 04:08:08;;;;;;;11.93;8.95;;;;;;;;;;5047860;28;20515;-75
2023/09/02 04:10:34;;;;;;;13.10;9.25;;;;;;;;;;5062655;28;20191;-75
2023/09/02 04:13:00;;;;;;;14.68;9.63;;;;;;;;;;5054422;28;21320;-75
2023/09/02 04:15:26;;;;;;;12.10;9.63;;;;;;;;;;5072532;28;20492;-76
2023/09/02 04:17:53;;;;;;;13.35;9.50;;;;;;;;;;5087789;28;20044;-75
2023/09/02 04:20:20;;;;;;;13.70;9.65;;;;;;;;;;5064138;28;20505;-75
2023/09/02 04:22:46;;;;;;;13.38;9.50;;;;;;;;;;5090615;28;20052;-75
2023/09/02 04:25:14;;;;;;;12.00;9.57;;;;;;;;;;5044338;28;20040;-75
2023/09/02 04:27:40;;;;;;;12.80;10.05;;;;;;;;;;5057657;28;20514;-75
2023/09/02 04:30:07;;;;;;;12.82;9.45;;;;;;;;;;5075580;28;20056;-75
2023/09/02 04:32:33;;;;;;;12.10;8.80;;;;;;;;;;5068066;28;20044;-75
2023/09/02 04:34:59;;;;;;;11.45;9.05;;;;;;;;;;5053447;28;20128;-75
2023/09/02 04:37:25;;;;;;;14.48;9.77;;;;;;;;;;5054339;28;20068;-75
2023/09/02 04:39:51;;;;;;;12.48;9.40;;;;;;;;;;5064745;28;20080;-75
2023/09/02 04:42:17;;;;;;;11.25;9.60;;;;;;;;;;5058312;28;20044;-75
2023/09/02 04:44:43;;;;;;;13.85;9.43;;;;;;;;;;5049427;28;20098;-75
2023/09/02 04:47:10;;;;;;;13.77;9.30;;;;;;;;;;5060631;28;20094;-76
2023/09/02 04:49:36;;;;;;;13.85;9.02;;;;;;;;;;5038677;28;20130;-75
2023/09/02 04:52:03;;;;;;;12.98;9.18;;;;;;;;;;5061059;28;20037;-75
2023/09/02 04:54:29;;;;;;;12.75;9.40;;;;;;;;;;5043680;28;20469;-75
2023/09/02 04:56:55;;;;;;;11.95;9.25;;;;;;;;;;5053199;28;20044;-76
2023/09/02 04:59:21;;;;;;;10.88;8.98;;;;;;;;;;5076058;28;20131;-75
2023/09/02 05:01:47;;;;;;;12.25;8.75;;;;;;;;;;5051023;28;20124;-75
2023/09/02 05:04:13;;;;;;;10.75;8.75;;;;;;;;;;5055753;28;20098;-75
2023/09/02 05:06:39;;;;;;;11.90;8.30;;;;;;;;;;5052451;28;20045;-75
2023/09/02 05:09:06;;;;;;;12.13;9.07;;;;;;;;;;5068877;28;20388;-75
2023/09/02 05:11:32;;;;;;;12.63;8.82;;;;;;;;;;5063218;28;20076;-75
2023/09/02 05:13:58;;;;;;;14.13;9.38;;;;;;;;;;5039786;28;20186;-75
2023/09/02 05:16:24;;;;;;;13.00;9.60;;;;;;;;;;5057573;28;20048;-75
2023/09/02 05:18:50;;;;;;;11.18;8.82;;;;;;;;;;5063324;28;20055;-75
2023/09/02 05:21:16;;;;;;;11.65;8.85;;;;;;;;;;5060641;28;20111;-75
2023/09/02 05:23:42;;;;;;;13.18;9.25;;;;;;;;;;5075021;28;20049;-75
2023/09/02 05:26:09;;;;;;;11.63;8.80;;;;;;;;;;5054850;28;20514;-75
2023/09/02 05:28:35;;;;;;;12.65;8.55;;;;;;;;;;5065103;28;20041;-75
2023/09/02 05:31:01;;;;;;;11.90;8.45;;;;;;;;;;5044321;28;20480;-75
2023/09/02 05:33:27;;;;;;;11.98;9.35;;;;;;;;;;5055247;28;20067;-75
2023/09/02 05:35:54;;;;;;;14.77;10.35;;;;;;;;;;5064552;28;20580;-75
2023/09/02 05:38:20;;;;;;;13.40;9.45;;;;;;;;;;5058754;28;20560;-75
2023/09/02 05:40:46;;;;;;;12.18;9.77;;;;;;;;;;5049654;28;20045;-75
2023/09/02 05:43:12;;;;;;;14.05;9.23;;;;;;;;;;5053993;28;20140;-75
2023/09/02 05:45:38;;;;;;;12.00;9.35;;;;;;;;;;5067955;28;20060;-75
2023/09/02 05:48:05;;;;;;;11.55;8.82;;;;;;;;;;5051536;28;20155;-75
2023/09/02 05:50:31;;;;;;;12.90;9.40;;;;;;;;;;5077576;28;20087;-75
2023/09/02 05:52:57;;;;;;;12.10;9.45;;;;;;;;;;5047042;28;20032;-75
2023/09/02 05:55:23;;;;;;;14.30;9.73;;;;;;;;;;5055291;28;20105;-75
2023/09/02 05:57:49;;;;;;;12.73;9.40;;;;;;;;;;5056500;28;20482;-75
2023/09/02 06:00:15;;;;;;;14.65;9.10;;;;;;;;;;5060019;28;20043;-75
2023/09/02 06:02:41;;;;;;;13.98;10.05;;;;;;;;;;5043323;28;20044;-75
2023/09/02 06:05:07;;;;;;;13.70;9.70;;;;;;;;;;5068832;28;20057;-75
2023/09/02 06:07:33;;;;;;;13.60;9.88;;;;;;;;;;5064304;28;20052;-75
2023/09/02 06:09:59;;;;;;;11.80;9.25;;;;;;;;;;5068427;28;20036;-74
2023/09/02 06:12:25;;;;;;;14.70;9.85;;;;;;;;;;5065849;28;20843;-75
2023/09/02 06:14:51;;;;;;;12.00;9.13;;;;;;;;;;5056645;28;20053;-75
2023/09/02 06:17:20;;;;;;;11.68;9.20;;;;;;;;;;5078847;28;20038;-75
2023/09/02 06:19:46;;;;;;;10.75;8.48;;;;;;;;;;5053403;28;20499;-75
2023/09/02 06:22:12;;;;;;;15.05;9.45;;;;;;;;;;5056750;28;20044;-75
2023/09/02 06:24:38;;;;;;;15.13;9.55;;;;;;;;;;5078413;28;20049;-75
2023/09/02 06:27:04;;;;;;;14.70;10.05;;;;;;;;;;5065495;28;20048;-75
2023/09/02 06:29:33;;;;;;;12.35;10.10;;;;;;;;;;5071232;28;20044;-75
2023/09/02 06:32:00;;;;;;;12.50;9.18;;;;;;;;;;5047229;28;20044;-75
2023/09/02 06:34:28;;;;;;;14.85;9.63;;;;;;;;;;5072563;28;20049;-75
2023/09/02 06:36:54;;;;;;;13.88;9.60;;;;;;;;;;5053033;28;20101;-75
2023/09/02 06:39:20;;;;;;;14.65;10.45;;;;;;;;;;5065725;28;20049;-75
2023/09/02 06:41:46;;;;;;;18.30;10.15;;;;;;;;;;5054404;28;20037;-75
2023/09/02 06:44:12;;;;;;;12.63;10.40;;;;;;;;;;5077823;28;20114;-75
2023/09/02 06:46:41;;;;;;;13.35;10.38;;;;;;;;;;5064312;28;20133;-75
2023/09/02 06:49:08;;;;;;;14.43;11.60;;;;;;;;;;5067218;28;20040;-75
2023/09/02 06:51:34;;;;;;;15.70;11.40;;;;;;;;;;5046051;28;20044;-75
2023/09/02 06:54:00;;;;;;;14.52;10.90;;;;;;;;;;5042362;28;20045;-75
2023/09/02 06:56:26;;;;;;;14.60;11.73;;;;;;;;;;5075739;28;20515;-75
2023/09/02 06:58:52;;;;;;;15.07;10.90;;;;;;;;;;5067079;28;20047;-75
2023/09/02 07:01:22;;;;;;;17.50;11.60;;;;;;;;;;5055363;28;20056;-75
2023/09/02 07:03:48;;;;;;;17.67;11.60;;;;;;;;;;5064121;28;20051;-75
2023/09/02 07:06:15;;;;;;;17.90;12.25;;;;;;;;;;5059434;28;20048;-75
2023/09/02 07:08:44;;;;;;;17.63;12.63;;;;;;;;;;5083381;28;20044;-75
2023/09/02 07:11:11;;;;;;;15.82;12.30;;;;;;;;;;5070331;28;20074;-75
2023/09/02 07:13:37;;;;;;;15.65;11.70;;;;;;;;;;5053856;28;20611;-75
2023/09/02 07:16:04;;;;;;;16.23;11.25;;;;;;;;;;5051296;28;20127;-75
2023/09/02 07:18:30;;;;;;;15.68;11.40;;;;;;;;;;5073120;28;20052;-75
2023/09/02 07:21:00;;;;;;;15.40;11.80;;;;;;;;;;5065203;28;20167;-75
2023/09/02 07:23:26;;;;;;;16.35;11.93;;;;;;;;;;5084275;28;20052;-75
2023/09/02 07:25:52;;;;;;;16.90;11.27;;;;;;;;;;5047179;28;20480;-75
2023/09/02 07:28:18;;;;;;;17.10;11.75;;;;;;;;;;5077625;28;20395;-75
2023/09/02 07:30:44;;;;;;;17.65;11.75;;;;;;;;;;5084061;28;20399;-75
2023/09/02 07:33:10;;;;;;;14.23;10.90;;;;;;;;;;5047011;28;20071;-75
2023/09/02 07:35:38;;;;;;;16.63;11.55;;;;;;;;;;5071936;28;20398;-75
2023/09/02 07:38:04;;;;;;;15.05;10.27;;;;;;;;;;5054189;28;20041;-75
2023/09/02 07:40:30;;;;;;;13.27;10.15;;;;;;;;;;5078443;28;20066;-75
2023/09/02 07:42:57;;;;;;;14.82;9.43;;;;;;;;;;5078477;28;20580;-75
2023/09/02 07:45:23;;;;;;;13.20;10.25;;;;;;;;;;5076976;28;20492;-75
2023/09/02 07:47:49;;;;;;;15.57;9.27;;;;;;;;;;5064916;28;20040;-75
2023/09/02 07:50:15;;;;;;;9.88;7.75;;;;;;;;;;5050722;28;20037;-75
2023/09/02 07:52:41;;;;;;;11.07;7.95;;;;;;;;;;5051595;28;20045;-75
2023/09/02 07:55:07;;;;;;;11.20;7.38;;;;;;;;;;5073274;28;20044;-75
2023/09/02 07:57:33;;;;;;;7.35;5.80;;;;;;;;;;5064224;28;20141;-75
2023/09/02 08:00:00;;;;;;;7.25;5.50;;;;;;;;;;5062208;28;20438;-76
2023/09/02 08:02:26;;;;;;;8.52;6.00;;;;;;;;;;5064570;28;20684;-76
2023/09/02 08:04:52;;;;;;;7.82;5.80;;;;;;;;;;5064870;28;20118;-76
2023/09/02 08:07:18;;;;;;;9.05;6.50;;;;;;;;;;5065829;28;20542;-75
2023/09/02 08:09:44;;;;;;;9.02;5.82;;;;;;;;;;5083164;28;20508;-76
2023/09/02 08:12:11;;;;;;;6.70;4.80;;;;;;;;;;5063941;28;20062;-76
2023/09/02 08:14:37;;;;;;;12.02;4.97;;;;;;;;;;5060709;28;20069;-76
2023/09/02 08:17:03;;;;;;;6.32;4.45;;;;;;;;;;5054529;28;20044;-76
2023/09/02 08:19:32;;;;;;;5.40;4.07;;;;;;;;;;5062208;28;20093;-76
2023/09/02 08:21:58;;;;;;;7.25;4.40;;;;;;;;;;5054391;28;20074;-76
2023/09/02 08:24:24;;;;;;;8.02;4.53;;;;;;;;;;5057703;28;20041;-76
2023/09/02 08:26:50;;;;;;;4.45;3.78;;;;;;;;;;5081713;28;20050;-76
2023/09/02 08:29:16;;;;;;;3.95;3.55;;;;;;;;;;5082503;28;20040;-75
2023/09/02 08:31:42;;;;;;;7.40;4.07;;;;;;;;;;5047733;28;20051;-76
2023/09/02 08:34:09;;;;;;;6.43;4.28;;;;;;;;;;5056264;28;20050;-76
2023/09/02 08:36:35;;;;;;;6.38;3.80;;;;;;;;;;5062174;28;20049;-76
2023/09/02 08:39:01;;;;;;;5.00;4.03;;;;;;;;;;5052591;28;20048;-76
2023/09/02 08:41:30;;;;;;;6.00;4.20;;;;;;;;;;5053615;28;20055;-75
2023/09/02 08:43:56;;;;;;;9.82;4.65;;;;;;;;;;5044316;28;20365;-76
2023/09/02 08:46:25;;;;;;;11.70;5.43;;;;;;;;;;5044721;28;20545;-76
2023/09/02 08:48:53;;;;;;;9.07;5.78;;;;;;;;;;5072272;28;20094;-76
2023/09/02 08:51:19;;;;;;;11.13;6.45;;;;;;;;;;5066914;28;20052;-75
2023/09/02 08:53:46;;;;;;;5.88;4.50;;;;;;;;;;5038890;28;20068;-76
2023/09/02 08:56:12;;;;;;;6.05;4.22;;;;;;;;;;5049461;28;20049;-75
2023/09/02 08:58:40;;;;;;;8.95;4.75;;;;;;;;;;5068780;28;20040;-76
2023/09/02 09:01:06;;;;;;;9.00;5.32;;;;;;;;;;5071040;28;20074;-76
2023/09/02 09:03:33;;;;;;;15.52;8.13;;;;;;;;;;5050741;28;20056;-75
2023/09/02 09:06:02;;;;;;;10.98;6.63;;;;;;;;;;5053056;28;20056;-75
2023/09/02 09:08:29;;;;;;;7.75;5.53;;;;;;;;;;5049716;28;20045;-76
2023/09/02 09:10:56;;;;;;;8.27;5.30;;;;;;;;;;5044372;28;20053;-76
2023/09/02 09:13:22;;;;;;;10.43;5.60;;;;;;;;;;5069282;28;20040;-76
2023/09/02 09:15:48;;;;;;;7.18;4.82;;;;;;;;;;5079001;28;20047;-76
2023/09/02 09:18:16;;;;;;;10.05;5.80;;;;;;;;;;5054730;28;20053;-76
2023/09/02 09:20:42;;;;;;;9.13;5.93;;;;;;;;;;5071441;28;20072;-76
2023/09/02 09:23:11;;;;;;;8.43;5.30;;;;;;;;;;5065034;28;20138;-76
2023/09/02 09:25:37;;;;;;;9.00;6.60;;;;;;;;;;5053989;28;20036;-76
2023/09/02 09:28:07;;;;;;;8.05;6.47;;;;;;;;;;5056088;28;20043;-76
2023/09/02 09:30:33;;;;;;;9.27;6.28;;;;;;;;;;5066235;28;20036;-76
2023/09/02 09:33:01;;;;;;;9.02;6.10;;;;;;;;;;5069981;28;20036;-76
2023/09/02 09:35:27;;;;;;;8.55;6.18;;;;;;;;;;5040847;28;20083;-77
2023/09/02 09:37:56;;;;;;;9.07;6.50;;;;;;;;;;5051264;28;20127;-76
2023/09/02 09:40:40;;;;;;;7.72;6.20;;;;;;;;;;5063112;28;20129;-76
2023/09/02 09:43:15;;;;;;;9.13;6.30;;;;;;;;;;5060735;28;20044;-75
2023/09/02 09:45:48;;;;;;;9.10;5.90;;;;;;;;;;5042084;28;20055;-75
2023/09/02 09:48:15;;;;;;;9.60;5.75;;;;;;;;;;5057008;28;20037;-75
2023/09/02 09:50:41;;;;;;;8.82;6.15;;;;;;;;;;5061720;28;20060;-75
2023/09/02 09:53:09;;;;;;;9.07;5.47;;;;;;;;;;5048197;28;20077;-75
2023/09/02 09:55:36;;;;;;;8.13;5.60;;;;;;;;;;5040074;28;20057;-75
2023/09/02 09:58:03;;;;;;;8.98;5.70;;;;;;;;;;5039261;28;20408;-75
2023/09/02 10:00:29;;;;;;;8.85;5.45;;;;;;;;;;5040915;28;20064;-75
2023/09/02 10:02:57;;;;;;;6.53;4.22;;;;;;;;;;5045995;28;20045;-75
2023/09/02 10:05:27;;;;;;;8.35;4.13;;;;;;;;;;5055743;28;20060;-75
2023/09/02 10:07:59;;;;;;;6.10;4.38;;;;;;;;;;5061631;28;20539;-75
2023/09/02 10:10:33;;;;;;;5.57;4.20;;;;;;;;;;5042561;28;20052;-75
2023/09/02 10:12:59;;;;;;;7.25;4.28;;;;;;;;;;5037842;28;20055;-73
2023/09/02 10:15:26;;;;;;;5.07;3.72;;;;;;;;;;5062218;28;20053;-76
2023/09/02 10:17:57;;;;;;;5.47;3.17;;;;;;;;;;5067257;28;20036;-75
2023/09/02 10:20:24;;;;;;;4.65;3.03;;;;;;;;;;5067176;28;20123;-75
2023/09/02 10:22:51;;;;;;;4.53;2.72;;;;;;;;;;5056325;28;20086;-75
2023/09/02 10:25:24;;;;;;;3.03;2.60;;;;;;;;;;5068345;28;20045;-75
2023/09/02 10:28:16;;;;;;;2.58;2.22;;;;;;;;;;5068080;28;20040;-75
2023/09/02 10:30:49;;;;;;;3.83;2.67;;;;;;;;;;5051862;28;20053;-75
2023/09/02 10:33:31;;;;;;;5.45;2.53;;;;;;;;;;5044888;28;20488;-75
2023/09/02 10:36:02;;;;;;;5.10;2.50;;;;;;;;;;5057636;28;20123;-76
2023/09/02 10:38:48;;;;;;;4.55;2.70;;;;;;;;;;5060157;28;20056;-76
2023/09/02 10:41:16;;;;;;;3.28;2.70;;;;;;;;;;5038238;28;20131;-76
2023/09/02 10:43:42;;;;;;;5.47;2.85;;;;;;;;;;5037233;28;20047;-75
2023/09/02 10:46:08;;;;;;;4.00;2.50;;;;;;;;;;5059802;28;20384;-75
2023/09/02 10:48:37;;;;;;;2.65;2.35;;;;;;;;;;5066830;28;20037;-76
2023/09/02 10:51:04;;;;;;;3.60;2.40;;;;;;;;;;5049872;28;20466;-75
2023/09/02 10:53:51;;;;;;;4.65;2.70;;;;;;;;;;5062755;28;20041;-76
2023/09/02 10:56:26;;;;;;;3.33;2.70;;;;;;;;;;5036356;28;20045;-75
2023/09/02 10:58:53;;;;;;;2.55;2.35;;;;;;;;;;5036190;28;20433;-76
2023/09/02 11:01:19;;;;;;;3.83;2.55;;;;;;;;;;5055323;28;20036;-75
2023/09/02 11:03:47;;;;;;;3.25;2.47;;;;;;;;;;5039488;28;20091;-75
2023/09/02 11:06:15;;;;;;;4.45;2.35;;;;;;;;;;5052580;28;20059;-75
2023/09/02 11:08:51;;;;;;;2.55;1.92;;;;;;;;;;5056367;28;20087;-75
2023/09/02 11:11:18;;;;;;;2.40;2.20;;;;;;;;;;5036410;28;20507;-75
2023/09/02 11:14:03;;;;;;;2.78;1.90;;;;;;;;;;5048008;28;20047;-75
2023/09/02 11:16:29;;;;;;;3.05;2.25;;;;;;;;;;5065437;28;20045;-75
2023/09/02 11:18:55;;;;;;;3.85;2.08;;;;;;;;;;5064433;28;20116;-75
2023/09/02 11:21:39;;;;;;;2.67;1.85;;;;;;;;;;5053247;28;20033;-76
2023/09/02 11:24:14;;;;;;;3.15;2.00;;;;;;;;;;5053537;28;20044;-75
2023/09/02 11:26:50;;;;;;;2.55;1.67;;;;;;;;;;5034565;28;20079;-75
2023/09/02 11:29:20;;;;;;;2.80;2.10;;;;;;;;;;5038723;28;20047;-75
2023/09/02 11:31:55;;;;;;;3.72;1.90;;;;;;;;;;5036166;28;20060;-75
2023/09/02 11:34:21;;;;;;;2.17;1.98;;;;;;;;;;5042682;28;20049;-75
2023/09/02 11:36:47;;;;;;;2.42;1.77;;;;;;;;;;5038856;28;20048;-75
2023/09/02 11:39:13;;;;;;;3.15;2.05;;;;;;;;;;5042543;28;20045;-75
2023/09/02 11:41:39;;;;;;;2.33;2.00;;;;;;;;;;5034333;28;20041;-75
2023/09/02 11:44:12;;;;;;;2.03;1.90;;;;;;;;;;5061998;28;20048;-75
2023/09/02 11:46:39;;;;;;;2.60;2.15;;;;;;;;;;5066889;28;20045;-75
2023/09/02 11:49:11;;;;;;;2.10;1.90;;;;;;;;;;5038284;28;20041;-75
2023/09/02 11:51:38;;;;;;;2.60;1.92;;;;;;;;;;5056463;28;20115;-75
2023/09/02 11:54:04;;;;;;;4.57;2.00;;;;;;;;;;5041775;28;20044;-75
2023/09/02 11:56:30;;;;;;;2.35;1.90;;;;;;;;;;5071757;28;20035;-75
2023/09/02 11:58:56;;;;;;;2.35;2.00;;;;;;;;;;5059317;28;20123;-75
2023/09/02 12:01:22;;;;;;;3.08;1.88;;;;;;;;;;5045647;28;20072;-75
2023/09/02 12:03:48;;;;;;;1.90;1.75;;;;;;;;;;5053469;28;20827;-75
2023/09/02 12:06:14;;;;;;;4.60;2.28;;;;;;;;;;5069230;28;20056;-75
2023/09/02 12:08:40;;;;;;;2.35;2.13;;;;;;;;;;5034279;28;20043;-76
2023/09/02 12:11:06;;;;;;;2.33;2.00;;;;;;;;;;5053083;28;20459;-75
2023/09/02 12:13:33;;;;;;;2.20;2.00;;;;;;;;;;5036114;28;20129;-75
2023/09/02 12:15:59;;;;;;;2.60;2.40;;;;;;;;;;5051706;28;20033;-75
2023/09/02 12:18:25;;;;;;;3.38;2.58;;;;;;;;;;5036608;28;20473;-75
2023/09/02 12:20:51;;;;;;;3.25;2.30;;;;;;;;;;5035178;28;20041;-75
2023/09/02 12:23:18;;;;;;;3.88;2.50;;;;;;;;;;5050196;28;20480;-75
2023/09/02 12:26:00;;;;;;;3.50;2.40;;;;;;;;;;5038811;28;20048;-75
2023/09/02 12:28:29;;;;;;;3.42;3.13;;;;;;;;;;5046348;28;20460;-75
2023/09/02 12:30:56;;;;;;;2.90;2.35;;;;;;;;;;5055131;28;20085;-76
2023/09/02 12:33:22;;;;;;;2.70;2.50;;;;;;;;;;5054113;28;20048;-75
2023/09/02 12:35:51;;;;;;;2.70;2.25;;;;;;;;;;5058117;28;20047;-75
2023/09/02 12:38:20;;;;;;;2.50;2.33;;;;;;;;;;5064983;28;20052;-75
2023/09/02 12:40:56;;;;;;;2.95;2.45;;;;;;;;;;5067846;28;20087;-75
2023/09/02 12:43:27;;;;;;;2.58;2.38;;;;;;;;;;5075289;28;20040;-74
2023/09/02 12:45:53;;;;;;;3.78;2.00;;;;;;;;;;5084590;28;20440;-75
2023/09/02 12:48:19;;;;;;;2.80;2.53;;;;;;;;;;5057589;28;20087;-77
2023/09/02 12:50:45;;;;;;;4.50;2.70;;;;;;;;;;5053361;28;20044;-76
2023/09/02 12:53:13;;;;;;;3.80;2.55;;;;;;;;;;5043153;28;20055;-76
2023/09/02 12:55:42;;;;;;;3.80;2.80;;;;;;;;;;5082301;28;20545;-77
2023/09/02 12:58:09;;;;;;;4.55;2.30;;;;;;;;;;5065814;28;20119;-74
2023/09/02 13:00:35;;;;;;;3.83;2.38;;;;;;;;;;5072383;28;20126;-78
2023/09/02 13:03:01;;;;;;;2.67;2.47;;;;;;;;;;5065751;28;20395;-77
2023/09/02 13:05:27;;;;;;;2.45;2.25;;;;;;;;;;5076153;28;20056;-74
2023/09/02 13:07:56;;;;;;;2.90;2.60;;;;;;;;;;5058673;28;20048;-77
2023/09/02 13:10:24;;;;;;;2.50;2.30;;;;;;;;;;5064089;28;20500;-74
2023/09/02 13:12:50;;;;;;;2.60;2.40;;;;;;;;;;5065049;28;20076;-74
2023/09/02 13:15:16;;;;;;;3.75;2.50;;;;;;;;;;5074559;28;20555;-74
2023/09/02 13:17:42;;;;;;;4.45;2.50;;;;;;;;;;5067064;28;20559;-74
2023/09/02 13:20:12;;;;;;;3.25;2.28;;;;;;;;;;5044555;28;20493;-73
2023/09/02 13:22:40;;;;;;;3.80;2.60;;;;;;;;;;5066728;28;20048;-75
2023/09/02 13:25:07;;;;;;;3.30;2.13;;;;;;;;;;5056912;28;20036;-73
2023/09/02 13:27:33;;;;;;;2.95;2.10;;;;;;;;;;5042440;28;20090;-73
2023/09/02 13:29:59;;;;;;;2.30;2.10;;;;;;;;;;5040696;28;20056;-73
2023/09/02 13:32:26;;;;;;;2.30;2.10;;;;;;;;;;5036336;28;20080;-74
2023/09/02 13:35:23;;;;;;;2.40;2.20;;;;;;;;;;5061762;28;20036;-79
2023/09/02 13:37:49;;;;;;;1.83;1.73;;;;;;;;;;5031780;28;20105;-77
2023/09/02 13:40:15;;;;;;;2.20;2.00;;;;;;;;;;5036023;28;20102;-77
2023/09/02 13:42:42;;;;;;;2.47;2.05;;;;;;;;;;5043306;28;20044;-78
2023/09/02 13:45:11;;;;;;;2.00;1.75;;;;;;;;;;5071839;28;20045;-78
2023/09/02 13:47:38;;;;;;;1.80;1.70;;;;;;;;;;5054566;28;20434;-78
2023/09/02 13:50:05;;;;;;;6.00;2.60;;;;;;;;;;5049636;28;20059;-77
2023/09/02 13:52:31;;;;;;;2.67;2.10;;;;;;;;;;5064838;28;20049;-77
2023/09/02 13:54:59;;;;;;;3.00;2.17;;;;;;;;;;5036954;28;20044;-77
2023/09/02 13:57:25;;;;;;;1.95;1.85;;;;;;;;;;5072724;28;20052;-77
2023/09/02 13:59:55;;;;;;;2.20;2.00;;;;;;;;;;5058671;28;20097;-77
2023/09/02 14:02:23;;;;;;;1.92;1.83;;;;;;;;;;5065772;28;20049;-77
2023/09/02 14:04:50;;;;;;;2.10;1.88;;;;;;;;;;5040420;28;20053;-77
2023/09/02 14:07:17;;;;;;;1.85;1.70;;;;;;;;;;5071353;28;20127;-74
2023/09/02 14:09:43;;;;;;;2.80;1.95;;;;;;;;;;5037906;28;20040;-74
2023/09/02 14:12:10;;;;;;;2.15;1.70;;;;;;;;;;5048577;28;20055;-74
2023/09/02 14:14:36;;;;;;;2.38;1.90;;;;;;;;;;5073485;28;20745;-74
2023/09/02 14:17:02;;;;;;;1.83;1.73;;;;;;;;;;5056676;28;20048;-74
2023/09/02 14:19:28;;;;;;;1.90;1.70;;;;;;;;;;5067108;28;20044;-75
2023/09/02 14:21:54;;;;;;;1.60;1.50;;;;;;;;;;5048381;28;20387;-75
2023/09/02 14:24:20;;;;;;;2.20;1.60;;;;;;;;;;5052050;28;20041;-75
2023/09/02 14:26:46;;;;;;;1.70;1.60;;;;;;;;;;5059557;28;20037;-77
2023/09/02 14:29:12;;;;;;;1.60;1.50;;;;;;;;;;5063902;28;20043;-77
2023/09/02 14:31:38;;;;;;;2.83;1.70;;;;;;;;;;5065661;28;20407;-78
2023/09/02 14:34:05;;;;;;;1.77;1.48;;;;;;;;;;5062731;28;20488;-78
2023/09/02 14:36:31;;;;;;;2.55;1.50;;;;;;;;;;5053210;28;20041;-78
2023/09/02 14:38:57;;;;;;;1.67;1.30;;;;;;;;;;5045685;28;20055;-78